sensor_id;sensor_type;location;lat;lon;timestamp;P1;durP1;ratioP1;P2;durP2;ratioP2
2998;SDS011;1509;51.964;7.628;2023-05-07T00:01:41;7.90;;;6.37;;
2998;SDS011;1509;51.964;7.628;2023-05-07T00:04:07;7.03;;;6.00;;
2998;SDS011;1509;51.964;7.628;2023-05-07T00:06:33;6.50;;;5.57;;
2998;SDS011;1509;51.964;7.628;2023-05-07T00:08:59;7.70;;;6.20;;
2998;SDS011;1509;51.964;7.628;2023-05-07T00:11:26;7.20;;;6.17;;
2998;SDS011;1509;51.964;7.628;2023-05-07T00:13:52;7.50;;;6.33;;
2998;SDS011;1509;51.964;7.628;2023-05-07T00:16:17;7.50;;;6.70;;
2998;SDS011;1509;51.964;7.628;2023-05-07T00:18:43;10.23;;;6.27;;
2998;SDS011;1509;51.964;7.628;2023-05-07T00:21:09;7.67;;;6.57;;
2998;SDS011;1509;51.964;7.628;2023-05-07T00:23:34;7.90;;;6.47;;
2998;SDS011;1509;51.964;7.628;2023-05-07T00:26:00;6.70;;;6.00;;
2998;SDS011;1509;51.964;7.628;2023-05-07T00:28:29;7.93;;;5.50;;
2998;SDS011;1509;51.964;7.628;2023-05-07T00:30:55;8.90;;;6.53;;
2998;SDS011;1509;51.964;7.628;2023-05-07T00:33:21;7.47;;;6.10;;
2998;SDS011;1509;51.964;7.628;2023-05-07T00:35:47;9.07;;;6.80;;
2998;SDS011;1509;51.964;7.628;2023-05-07T00:38:14;9.97;;;7.07;;
2998;SDS011;1509;51.964;7.628;2023-05-07T00:40:40;7.53;;;6.50;;
2998;SDS011;1509;51.964;7.628;2023-05-07T00:43:05;8.17;;;6.47;;
2998;SDS011;1509;51.964;7.628;2023-05-07T00:45:32;10.43;;;6.00;;
2998;SDS011;1509;51.964;7.628;2023-05-07T00:47:59;6.80;;;5.90;;
2998;SDS011;1509;51.964;7.628;2023-05-07T00:50:25;8.50;;;5.83;;
2998;SDS011;1509;51.964;7.628;2023-05-07T00:52:52;6.77;;;5.60;;
2998;SDS011;1509;51.964;7.628;2023-05-07T00:55:18;9.17;;;6.97;;
2998;SDS011;1509;51.964;7.628;2023-05-07T00:57:45;8.80;;;6.80;;
2998;SDS011;1509;51.964;7.628;2023-05-07T01:00:12;9.53;;;7.63;;
2998;SDS011;1509;51.964;7.628;2023-05-07T01:02:38;12.87;;;6.70;;
2998;SDS011;1509;51.964;7.628;2023-05-07T01:05:05;8.10;;;7.30;;
2998;SDS011;1509;51.964;7.628;2023-05-07T01:07:32;10.40;;;7.53;;
2998;SDS011;1509;51.964;7.628;2023-05-07T01:09:59;9.83;;;8.07;;
2998;SDS011;1509;51.964;7.628;2023-05-07T01:12:26;10.80;;;7.43;;
2998;SDS011;1509;51.964;7.628;2023-05-07T01:14:52;9.80;;;8.00;;
2998;SDS011;1509;51.964;7.628;2023-05-07T01:17:19;10.50;;;9.20;;
2998;SDS011;1509;51.964;7.628;2023-05-07T01:19:45;11.40;;;7.73;;
2998;SDS011;1509;51.964;7.628;2023-05-07T01:22:12;10.67;;;8.77;;
2998;SDS011;1509;51.964;7.628;2023-05-07T01:24:41;9.77;;;7.87;;
2998;SDS011;1509;51.964;7.628;2023-05-07T01:27:07;10.17;;;8.23;;
2998;SDS011;1509;51.964;7.628;2023-05-07T01:29:33;13.40;;;8.60;;
2998;SDS011;1509;51.964;7.628;2023-05-07T01:32:00;11.53;;;9.80;;
2998;SDS011;1509;51.964;7.628;2023-05-07T01:34:30;12.03;;;8.97;;
2998;SDS011;1509;51.964;7.628;2023-05-07T01:36:56;10.87;;;8.20;;
2998;SDS011;1509;51.964;7.628;2023-05-07T01:39:24;13.73;;;9.67;;
2998;SDS011;1509;51.964;7.628;2023-05-07T01:41:51;12.90;;;10.23;;
2998;SDS011;1509;51.964;7.628;2023-05-07T01:44:18;14.47;;;11.23;;
2998;SDS011;1509;51.964;7.628;2023-05-07T01:46:44;14.40;;;11.23;;
2998;SDS011;1509;51.964;7.628;2023-05-07T01:49:10;16.57;;;11.80;;
2998;SDS011;1509;51.964;7.628;2023-05-07T01:51:36;17.03;;;11.53;;
2998;SDS011;1509;51.964;7.628;2023-05-07T01:54:02;20.60;;;11.63;;
2998;SDS011;1509;51.964;7.628;2023-05-07T01:56:31;18.30;;;11.30;;
2998;SDS011;1509;51.964;7.628;2023-05-07T01:58:57;18.70;;;13.63;;
2998;SDS011;1509;51.964;7.628;2023-05-07T02:01:23;17.47;;;13.43;;
2998;SDS011;1509;51.964;7.628;2023-05-07T02:03:49;21.40;;;13.67;;
2998;SDS011;1509;51.964;7.628;2023-05-07T02:06:15;18.50;;;13.43;;
2998;SDS011;1509;51.964;7.628;2023-05-07T02:08:41;18.03;;;13.10;;
2998;SDS011;1509;51.964;7.628;2023-05-07T02:11:07;16.60;;;13.67;;
2998;SDS011;1509;51.964;7.628;2023-05-07T02:13:35;21.37;;;14.13;;
2998;SDS011;1509;51.964;7.628;2023-05-07T02:16:01;19.13;;;14.70;;
2998;SDS011;1509;51.964;7.628;2023-05-07T02:18:27;18.67;;;13.17;;
2998;SDS011;1509;51.964;7.628;2023-05-07T02:20:53;18.03;;;14.47;;
2998;SDS011;1509;51.964;7.628;2023-05-07T02:23:19;19.00;;;14.40;;
2998;SDS011;1509;51.964;7.628;2023-05-07T02:25:44;18.60;;;14.53;;
2998;SDS011;1509;51.964;7.628;2023-05-07T02:28:11;23.57;;;16.83;;
2998;SDS011;1509;51.964;7.628;2023-05-07T02:30:37;19.90;;;14.63;;
2998;SDS011;1509;51.964;7.628;2023-05-07T02:33:03;20.50;;;15.10;;
2998;SDS011;1509;51.964;7.628;2023-05-07T02:35:29;19.70;;;14.10;;
2998;SDS011;1509;51.964;7.628;2023-05-07T02:37:55;24.37;;;15.67;;
2998;SDS011;1509;51.964;7.628;2023-05-07T02:40:21;18.60;;;15.30;;
2998;SDS011;1509;51.964;7.628;2023-05-07T02:42:47;18.90;;;14.47;;
2998;SDS011;1509;51.964;7.628;2023-05-07T02:45:13;21.53;;;15.93;;
2998;SDS011;1509;51.964;7.628;2023-05-07T02:47:40;23.10;;;15.50;;
2998;SDS011;1509;51.964;7.628;2023-05-07T02:50:05;20.87;;;15.03;;
2998;SDS011;1509;51.964;7.628;2023-05-07T02:52:32;22.57;;;15.30;;
2998;SDS011;1509;51.964;7.628;2023-05-07T02:54:58;21.03;;;15.70;;
2998;SDS011;1509;51.964;7.628;2023-05-07T02:57:23;22.70;;;14.53;;
2998;SDS011;1509;51.964;7.628;2023-05-07T02:59:52;20.73;;;16.40;;
2998;SDS011;1509;51.964;7.628;2023-05-07T03:02:18;23.63;;;14.93;;
2998;SDS011;1509;51.964;7.628;2023-05-07T03:04:43;19.07;;;14.67;;
2998;SDS011;1509;51.964;7.628;2023-05-07T03:07:09;21.60;;;15.57;;
2998;SDS011;1509;51.964;7.628;2023-05-07T03:09:35;22.20;;;15.43;;
2998;SDS011;1509;51.964;7.628;2023-05-07T03:12:01;18.07;;;16.10;;
2998;SDS011;1509;51.964;7.628;2023-05-07T03:14:27;23.43;;;16.73;;
2998;SDS011;1509;51.964;7.628;2023-05-07T03:16:53;21.07;;;15.27;;
2998;SDS011;1509;51.964;7.628;2023-05-07T03:19:19;19.20;;;14.80;;
2998;SDS011;1509;51.964;7.628;2023-05-07T03:21:45;21.30;;;16.10;;
2998;SDS011;1509;51.964;7.628;2023-05-07T03:24:11;19.60;;;15.73;;
2998;SDS011;1509;51.964;7.628;2023-05-07T03:26:36;18.70;;;15.60;;
2998;SDS011;1509;51.964;7.628;2023-05-07T03:29:02;20.43;;;16.00;;
2998;SDS011;1509;51.964;7.628;2023-05-07T03:31:27;20.00;;;14.90;;
2998;SDS011;1509;51.964;7.628;2023-05-07T03:33:54;21.60;;;17.03;;
2998;SDS011;1509;51.964;7.628;2023-05-07T03:36:21;20.87;;;14.60;;
2998;SDS011;1509;51.964;7.628;2023-05-07T03:38:47;20.30;;;15.53;;
2998;SDS011;1509;51.964;7.628;2023-05-07T03:41:13;20.00;;;14.50;;
2998;SDS011;1509;51.964;7.628;2023-05-07T03:43:39;18.97;;;14.77;;
2998;SDS011;1509;51.964;7.628;2023-05-07T03:46:04;22.37;;;15.33;;
2998;SDS011;1509;51.964;7.628;2023-05-07T03:48:30;25.10;;;16.43;;
2998;SDS011;1509;51.964;7.628;2023-05-07T03:51:04;24.90;;;15.83;;
2998;SDS011;1509;51.964;7.628;2023-05-07T03:53:30;23.50;;;15.30;;
2998;SDS011;1509;51.964;7.628;2023-05-07T03:55:56;19.37;;;16.20;;
2998;SDS011;1509;51.964;7.628;2023-05-07T03:58:21;18.57;;;14.10;;
2998;SDS011;1509;51.964;7.628;2023-05-07T04:00:47;21.23;;;15.40;;
2998;SDS011;1509;51.964;7.628;2023-05-07T04:03:13;22.10;;;16.90;;
2998;SDS011;1509;51.964;7.628;2023-05-07T04:05:40;18.00;;;14.57;;
2998;SDS011;1509;51.964;7.628;2023-05-07T04:08:06;20.13;;;14.83;;
2998;SDS011;1509;51.964;7.628;2023-05-07T04:10:35;24.53;;;16.07;;
2998;SDS011;1509;51.964;7.628;2023-05-07T04:13:00;19.10;;;15.43;;
2998;SDS011;1509;51.964;7.628;2023-05-07T04:15:26;19.77;;;15.50;;
2998;SDS011;1509;51.964;7.628;2023-05-07T04:17:51;17.23;;;13.97;;
2998;SDS011;1509;51.964;7.628;2023-05-07T04:20:17;21.53;;;14.70;;
2998;SDS011;1509;51.964;7.628;2023-05-07T04:22:43;20.53;;;15.13;;
2998;SDS011;1509;51.964;7.628;2023-05-07T04:25:08;21.03;;;14.90;;
2998;SDS011;1509;51.964;7.628;2023-05-07T04:27:35;20.87;;;16.73;;
2998;SDS011;1509;51.964;7.628;2023-05-07T04:30:01;22.37;;;16.60;;
2998;SDS011;1509;51.964;7.628;2023-05-07T04:32:27;21.50;;;15.70;;
2998;SDS011;1509;51.964;7.628;2023-05-07T04:34:54;22.30;;;15.47;;
2998;SDS011;1509;51.964;7.628;2023-05-07T04:37:20;24.07;;;17.10;;
2998;SDS011;1509;51.964;7.628;2023-05-07T04:39:47;22.37;;;16.20;;
2998;SDS011;1509;51.964;7.628;2023-05-07T04:42:15;22.77;;;15.63;;
2998;SDS011;1509;51.964;7.628;2023-05-07T04:44:43;19.87;;;16.33;;
2998;SDS011;1509;51.964;7.628;2023-05-07T04:47:09;19.57;;;15.63;;
2998;SDS011;1509;51.964;7.628;2023-05-07T04:49:35;20.53;;;16.23;;
2998;SDS011;1509;51.964;7.628;2023-05-07T04:52:01;23.60;;;15.10;;
2998;SDS011;1509;51.964;7.628;2023-05-07T04:54:28;20.30;;;15.03;;
2998;SDS011;1509;51.964;7.628;2023-05-07T04:56:54;19.50;;;15.87;;
2998;SDS011;1509;51.964;7.628;2023-05-07T04:59:20;21.43;;;15.40;;
2998;SDS011;1509;51.964;7.628;2023-05-07T05:01:46;25.23;;;16.07;;
2998;SDS011;1509;51.964;7.628;2023-05-07T05:04:11;20.97;;;14.60;;
2998;SDS011;1509;51.964;7.628;2023-05-07T05:06:38;23.70;;;15.83;;
2998;SDS011;1509;51.964;7.628;2023-05-07T05:09:03;21.90;;;15.13;;
2998;SDS011;1509;51.964;7.628;2023-05-07T05:11:30;19.23;;;14.80;;
2998;SDS011;1509;51.964;7.628;2023-05-07T05:13:56;24.23;;;16.20;;
2998;SDS011;1509;51.964;7.628;2023-05-07T05:16:22;23.37;;;17.17;;
2998;SDS011;1509;51.964;7.628;2023-05-07T05:18:48;22.37;;;15.87;;
2998;SDS011;1509;51.964;7.628;2023-05-07T05:21:17;25.90;;;15.83;;
2998;SDS011;1509;51.964;7.628;2023-05-07T05:23:43;24.50;;;16.20;;
2998;SDS011;1509;51.964;7.628;2023-05-07T05:26:08;24.90;;;16.00;;
2998;SDS011;1509;51.964;7.628;2023-05-07T05:28:34;20.87;;;14.87;;
2998;SDS011;1509;51.964;7.628;2023-05-07T05:31:00;23.23;;;16.90;;
2998;SDS011;1509;51.964;7.628;2023-05-07T05:33:25;22.23;;;15.70;;
2998;SDS011;1509;51.964;7.628;2023-05-07T05:35:51;20.17;;;15.10;;
2998;SDS011;1509;51.964;7.628;2023-05-07T05:38:19;20.90;;;15.00;;
2998;SDS011;1509;51.964;7.628;2023-05-07T05:40:45;20.83;;;16.20;;
2998;SDS011;1509;51.964;7.628;2023-05-07T05:43:11;21.17;;;16.70;;
2998;SDS011;1509;51.964;7.628;2023-05-07T05:45:37;20.93;;;15.07;;
2998;SDS011;1509;51.964;7.628;2023-05-07T05:48:03;21.03;;;16.30;;
2998;SDS011;1509;51.964;7.628;2023-05-07T05:50:29;24.63;;;15.83;;
2998;SDS011;1509;51.964;7.628;2023-05-07T05:52:55;22.30;;;16.13;;
2998;SDS011;1509;51.964;7.628;2023-05-07T05:55:21;23.63;;;15.13;;
2998;SDS011;1509;51.964;7.628;2023-05-07T05:57:47;22.90;;;16.67;;
2998;SDS011;1509;51.964;7.628;2023-05-07T06:00:13;20.90;;;15.87;;
2998;SDS011;1509;51.964;7.628;2023-05-07T06:02:39;19.80;;;15.60;;
2998;SDS011;1509;51.964;7.628;2023-05-07T06:05:10;20.50;;;15.13;;
2998;SDS011;1509;51.964;7.628;2023-05-07T06:07:36;23.57;;;17.10;;
2998;SDS011;1509;51.964;7.628;2023-05-07T06:10:02;20.37;;;16.13;;
2998;SDS011;1509;51.964;7.628;2023-05-07T06:12:27;22.70;;;14.67;;
2998;SDS011;1509;51.964;7.628;2023-05-07T06:14:59;23.30;;;16.47;;
2998;SDS011;1509;51.964;7.628;2023-05-07T06:17:24;18.50;;;14.30;;
2998;SDS011;1509;51.964;7.628;2023-05-07T06:19:50;23.47;;;15.90;;
2998;SDS011;1509;51.964;7.628;2023-05-07T06:22:16;22.27;;;15.83;;
2998;SDS011;1509;51.964;7.628;2023-05-07T06:24:42;24.70;;;16.70;;
2998;SDS011;1509;51.964;7.628;2023-05-07T06:27:08;22.23;;;14.97;;
2998;SDS011;1509;51.964;7.628;2023-05-07T06:29:34;20.87;;;14.80;;
2998;SDS011;1509;51.964;7.628;2023-05-07T06:32:09;21.80;;;15.43;;
2998;SDS011;1509;51.964;7.628;2023-05-07T06:34:36;22.57;;;15.77;;
2998;SDS011;1509;51.964;7.628;2023-05-07T06:37:02;24.37;;;15.50;;
2998;SDS011;1509;51.964;7.628;2023-05-07T06:39:28;22.13;;;15.60;;
2998;SDS011;1509;51.964;7.628;2023-05-07T06:41:54;22.37;;;15.20;;
2998;SDS011;1509;51.964;7.628;2023-05-07T06:44:19;19.57;;;14.10;;
2998;SDS011;1509;51.964;7.628;2023-05-07T06:46:45;19.10;;;15.17;;
2998;SDS011;1509;51.964;7.628;2023-05-07T06:49:12;23.80;;;15.83;;
2998;SDS011;1509;51.964;7.628;2023-05-07T06:51:38;22.27;;;16.80;;
2998;SDS011;1509;51.964;7.628;2023-05-07T06:54:04;18.83;;;15.20;;
2998;SDS011;1509;51.964;7.628;2023-05-07T06:56:30;19.17;;;14.70;;
2998;SDS011;1509;51.964;7.628;2023-05-07T06:58:56;22.67;;;15.93;;
2998;SDS011;1509;51.964;7.628;2023-05-07T07:01:22;21.80;;;16.40;;
2998;SDS011;1509;51.964;7.628;2023-05-07T07:03:47;25.37;;;18.13;;
2998;SDS011;1509;51.964;7.628;2023-05-07T07:06:13;21.63;;;15.57;;
2998;SDS011;1509;51.964;7.628;2023-05-07T07:08:39;24.30;;;15.90;;
2998;SDS011;1509;51.964;7.628;2023-05-07T07:11:05;23.97;;;15.93;;
2998;SDS011;1509;51.964;7.628;2023-05-07T07:13:31;23.40;;;14.87;;
2998;SDS011;1509;51.964;7.628;2023-05-07T07:15:56;18.10;;;14.43;;
2998;SDS011;1509;51.964;7.628;2023-05-07T07:18:25;20.80;;;14.60;;
2998;SDS011;1509;51.964;7.628;2023-05-07T07:20:51;22.80;;;15.90;;
2998;SDS011;1509;51.964;7.628;2023-05-07T07:23:17;21.20;;;15.50;;
2998;SDS011;1509;51.964;7.628;2023-05-07T07:25:42;20.10;;;15.43;;
2998;SDS011;1509;51.964;7.628;2023-05-07T07:28:08;18.77;;;14.63;;
2998;SDS011;1509;51.964;7.628;2023-05-07T07:30:33;20.77;;;16.47;;
2998;SDS011;1509;51.964;7.628;2023-05-07T07:32:59;20.53;;;15.03;;
2998;SDS011;1509;51.964;7.628;2023-05-07T07:35:30;23.07;;;15.87;;
2998;SDS011;1509;51.964;7.628;2023-05-07T07:40:28;22.60;;;15.90;;
2998;SDS011;1509;51.964;7.628;2023-05-07T07:42:54;23.70;;;15.57;;
2998;SDS011;1509;51.964;7.628;2023-05-07T07:45:20;24.17;;;15.60;;
2998;SDS011;1509;51.964;7.628;2023-05-07T07:47:51;21.67;;;15.70;;
2998;SDS011;1509;51.964;7.628;2023-05-07T07:50:17;23.07;;;15.87;;
2998;SDS011;1509;51.964;7.628;2023-05-07T07:52:43;24.97;;;15.27;;
2998;SDS011;1509;51.964;7.628;2023-05-07T07:55:09;21.97;;;15.90;;
2998;SDS011;1509;51.964;7.628;2023-05-07T07:57:34;19.87;;;15.37;;
2998;SDS011;1509;51.964;7.628;2023-05-07T08:00:02;19.67;;;14.83;;
2998;SDS011;1509;51.964;7.628;2023-05-07T08:02:32;28.10;;;16.27;;
2998;SDS011;1509;51.964;7.628;2023-05-07T08:04:58;19.67;;;15.00;;
2998;SDS011;1509;51.964;7.628;2023-05-07T08:07:24;20.23;;;15.73;;
2998;SDS011;1509;51.964;7.628;2023-05-07T08:09:50;22.30;;;16.30;;
2998;SDS011;1509;51.964;7.628;2023-05-07T08:12:16;25.40;;;15.57;;
2998;SDS011;1509;51.964;7.628;2023-05-07T08:14:41;17.80;;;14.50;;
2998;SDS011;1509;51.964;7.628;2023-05-07T08:17:10;20.53;;;15.20;;
2998;SDS011;1509;51.964;7.628;2023-05-07T08:19:36;22.40;;;16.17;;
2998;SDS011;1509;51.964;7.628;2023-05-07T08:22:02;20.23;;;14.20;;
2998;SDS011;1509;51.964;7.628;2023-05-07T08:24:32;19.03;;;14.53;;
2998;SDS011;1509;51.964;7.628;2023-05-07T08:26:58;18.20;;;13.83;;
2998;SDS011;1509;51.964;7.628;2023-05-07T08:29:23;22.40;;;16.23;;
2998;SDS011;1509;51.964;7.628;2023-05-07T08:31:49;20.60;;;14.70;;
2998;SDS011;1509;51.964;7.628;2023-05-07T08:34:14;22.07;;;14.30;;
2998;SDS011;1509;51.964;7.628;2023-05-07T08:36:40;20.80;;;15.10;;
2998;SDS011;1509;51.964;7.628;2023-05-07T08:39:07;21.50;;;16.20;;
2998;SDS011;1509;51.964;7.628;2023-05-07T08:41:33;20.63;;;14.67;;
2998;SDS011;1509;51.964;7.628;2023-05-07T08:43:59;20.93;;;15.47;;
2998;SDS011;1509;51.964;7.628;2023-05-07T08:46:28;19.90;;;14.73;;
2998;SDS011;1509;51.964;7.628;2023-05-07T08:48:57;20.60;;;14.80;;
2998;SDS011;1509;51.964;7.628;2023-05-07T08:51:23;23.50;;;15.60;;
2998;SDS011;1509;51.964;7.628;2023-05-07T08:53:49;19.43;;;13.90;;
2998;SDS011;1509;51.964;7.628;2023-05-07T08:56:15;18.50;;;14.70;;
2998;SDS011;1509;51.964;7.628;2023-05-07T08:58:44;21.33;;;16.23;;
2998;SDS011;1509;51.964;7.628;2023-05-07T09:01:14;20.03;;;14.83;;
2998;SDS011;1509;51.964;7.628;2023-05-07T09:03:42;18.30;;;14.00;;
2998;SDS011;1509;51.964;7.628;2023-05-07T09:06:10;18.00;;;14.27;;
2998;SDS011;1509;51.964;7.628;2023-05-07T09:08:36;18.70;;;15.00;;
2998;SDS011;1509;51.964;7.628;2023-05-07T09:11:02;16.50;;;14.17;;
2998;SDS011;1509;51.964;7.628;2023-05-07T09:13:28;20.20;;;14.27;;
2998;SDS011;1509;51.964;7.628;2023-05-07T09:15:57;19.33;;;14.07;;
2998;SDS011;1509;51.964;7.628;2023-05-07T09:18:25;20.33;;;14.63;;
2998;SDS011;1509;51.964;7.628;2023-05-07T09:20:51;16.37;;;13.40;;
2998;SDS011;1509;51.964;7.628;2023-05-07T09:23:17;17.10;;;12.33;;
2998;SDS011;1509;51.964;7.628;2023-05-07T09:25:42;16.50;;;12.90;;
2998;SDS011;1509;51.964;7.628;2023-05-07T09:28:08;15.67;;;12.60;;
2998;SDS011;1509;51.964;7.628;2023-05-07T09:30:35;19.60;;;12.37;;
2998;SDS011;1509;51.964;7.628;2023-05-07T09:33:02;16.20;;;12.47;;
2998;SDS011;1509;51.964;7.628;2023-05-07T09:35:28;17.27;;;11.73;;
2998;SDS011;1509;51.964;7.628;2023-05-07T09:37:58;16.50;;;13.53;;
2998;SDS011;1509;51.964;7.628;2023-05-07T09:40:27;16.93;;;11.80;;
2998;SDS011;1509;51.964;7.628;2023-05-07T09:42:53;17.63;;;12.27;;
2998;SDS011;1509;51.964;7.628;2023-05-07T09:45:24;12.00;;;10.60;;
2998;SDS011;1509;51.964;7.628;2023-05-07T09:47:53;18.93;;;12.27;;
2998;SDS011;1509;51.964;7.628;2023-05-07T09:50:19;13.30;;;11.80;;
2998;SDS011;1509;51.964;7.628;2023-05-07T09:53:03;14.10;;;12.17;;
2998;SDS011;1509;51.964;7.628;2023-05-07T09:55:30;15.47;;;11.67;;
2998;SDS011;1509;51.964;7.628;2023-05-07T09:57:56;14.07;;;11.57;;
2998;SDS011;1509;51.964;7.628;2023-05-07T10:00:23;13.50;;;11.70;;
2998;SDS011;1509;51.964;7.628;2023-05-07T10:02:53;13.77;;;11.67;;
2998;SDS011;1509;51.964;7.628;2023-05-07T10:05:22;15.27;;;11.93;;
2998;SDS011;1509;51.964;7.628;2023-05-07T10:07:48;12.80;;;10.20;;
2998;SDS011;1509;51.964;7.628;2023-05-07T10:10:15;18.10;;;11.63;;
2998;SDS011;1509;51.964;7.628;2023-05-07T10:12:42;14.80;;;10.90;;
2998;SDS011;1509;51.964;7.628;2023-05-07T10:15:08;11.53;;;10.20;;
2998;SDS011;1509;51.964;7.628;2023-05-07T10:17:36;12.37;;;10.27;;
2998;SDS011;1509;51.964;7.628;2023-05-07T10:20:03;14.97;;;11.53;;
2998;SDS011;1509;51.964;7.628;2023-05-07T10:22:31;13.43;;;11.30;;
2998;SDS011;1509;51.964;7.628;2023-05-07T10:25:03;11.80;;;10.60;;
2998;SDS011;1509;51.964;7.628;2023-05-07T10:27:36;11.63;;;10.43;;
2998;SDS011;1509;51.964;7.628;2023-05-07T10:30:08;15.30;;;11.20;;
2998;SDS011;1509;51.964;7.628;2023-05-07T10:32:49;12.90;;;10.50;;
2998;SDS011;1509;51.964;7.628;2023-05-07T10:35:19;14.03;;;10.50;;
2998;SDS011;1509;51.964;7.628;2023-05-07T10:37:49;11.27;;;9.10;;
2998;SDS011;1509;51.964;7.628;2023-05-07T10:40:16;13.00;;;10.50;;
2998;SDS011;1509;51.964;7.628;2023-05-07T10:45:27;11.57;;;9.00;;
2998;SDS011;1509;51.964;7.628;2023-05-07T10:50:38;11.07;;;9.93;;
2998;SDS011;1509;51.964;7.628;2023-05-07T10:55:50;14.07;;;10.50;;
2998;SDS011;1509;51.964;7.628;2023-05-07T10:58:26;13.40;;;9.20;;
2998;SDS011;1509;51.964;7.628;2023-05-07T11:01:00;11.90;;;9.27;;
2998;SDS011;1509;51.964;7.628;2023-05-07T11:03:27;11.20;;;9.13;;
2998;SDS011;1509;51.964;7.628;2023-05-07T11:06:09;10.03;;;8.57;;
2998;SDS011;1509;51.964;7.628;2023-05-07T11:08:54;11.00;;;9.10;;
2998;SDS011;1509;51.964;7.628;2023-05-07T11:11:43;9.50;;;8.23;;
2998;SDS011;1509;51.964;7.628;2023-05-07T11:17:07;14.80;;;8.80;;
2998;SDS011;1509;51.964;7.628;2023-05-07T11:19:50;10.07;;;8.50;;
2998;SDS011;1509;51.964;7.628;2023-05-07T11:25:01;11.90;;;9.57;;
2998;SDS011;1509;51.964;7.628;2023-05-07T11:27:28;9.37;;;7.90;;
2998;SDS011;1509;51.964;7.628;2023-05-07T11:29:54;9.77;;;7.87;;
2998;SDS011;1509;51.964;7.628;2023-05-07T11:32:24;8.93;;;7.87;;
2998;SDS011;1509;51.964;7.628;2023-05-07T11:34:51;8.10;;;7.27;;
2998;SDS011;1509;51.964;7.628;2023-05-07T11:37:19;9.27;;;8.30;;
2998;SDS011;1509;51.964;7.628;2023-05-07T11:39:45;9.00;;;7.43;;
2998;SDS011;1509;51.964;7.628;2023-05-07T11:42:31;9.73;;;8.10;;
2998;SDS011;1509;51.964;7.628;2023-05-07T11:45:03;7.77;;;6.97;;
2998;SDS011;1509;51.964;7.628;2023-05-07T11:47:31;7.90;;;7.10;;
2998;SDS011;1509;51.964;7.628;2023-05-07T11:49:56;7.63;;;6.43;;
2998;SDS011;1509;51.964;7.628;2023-05-07T11:52:27;10.20;;;7.83;;
2998;SDS011;1509;51.964;7.628;2023-05-07T11:54:53;9.30;;;8.40;;
2998;SDS011;1509;51.964;7.628;2023-05-07T11:57:21;8.03;;;7.10;;
2998;SDS011;1509;51.964;7.628;2023-05-07T11:59:48;7.57;;;6.77;;
2998;SDS011;1509;51.964;7.628;2023-05-07T12:02:17;7.37;;;6.60;;
2998;SDS011;1509;51.964;7.628;2023-05-07T12:04:43;8.13;;;7.33;;
2998;SDS011;1509;51.964;7.628;2023-05-07T12:07:12;7.93;;;6.87;;
2998;SDS011;1509;51.964;7.628;2023-05-07T12:09:41;8.03;;;7.17;;
2998;SDS011;1509;51.964;7.628;2023-05-07T12:12:09;7.93;;;7.03;;
2998;SDS011;1509;51.964;7.628;2023-05-07T12:14:38;6.87;;;6.00;;
2998;SDS011;1509;51.964;7.628;2023-05-07T12:17:05;7.67;;;6.17;;
2998;SDS011;1509;51.964;7.628;2023-05-07T12:19:38;6.33;;;5.70;;
2998;SDS011;1509;51.964;7.628;2023-05-07T12:22:10;7.27;;;6.57;;
2998;SDS011;1509;51.964;7.628;2023-05-07T12:27:36;7.23;;;6.40;;
2998;SDS011;1509;51.964;7.628;2023-05-07T12:30:03;7.80;;;7.10;;
2998;SDS011;1509;51.964;7.628;2023-05-07T12:32:29;11.27;;;8.20;;
2998;SDS011;1509;51.964;7.628;2023-05-07T12:34:55;8.53;;;7.63;;
2998;SDS011;1509;51.964;7.628;2023-05-07T12:37:30;7.77;;;6.97;;
2998;SDS011;1509;51.964;7.628;2023-05-07T12:40:05;7.97;;;7.17;;
2998;SDS011;1509;51.964;7.628;2023-05-07T12:42:32;10.10;;;6.47;;
2998;SDS011;1509;51.964;7.628;2023-05-07T12:45:07;7.30;;;6.37;;
2998;SDS011;1509;51.964;7.628;2023-05-07T12:47:36;7.77;;;7.07;;
2998;SDS011;1509;51.964;7.628;2023-05-07T12:50:02;6.50;;;5.80;;
2998;SDS011;1509;51.964;7.628;2023-05-07T12:52:34;9.23;;;6.53;;
2998;SDS011;1509;51.964;7.628;2023-05-07T12:55:06;7.40;;;6.40;;
2998;SDS011;1509;51.964;7.628;2023-05-07T12:57:39;9.27;;;6.13;;
2998;SDS011;1509;51.964;7.628;2023-05-07T13:00:06;7.33;;;6.17;;
2998;SDS011;1509;51.964;7.628;2023-05-07T13:02:41;7.70;;;6.60;;
2998;SDS011;1509;51.964;7.628;2023-05-07T13:05:17;7.80;;;5.57;;
2998;SDS011;1509;51.964;7.628;2023-05-07T13:07:52;7.13;;;5.70;;
2998;SDS011;1509;51.964;7.628;2023-05-07T13:10:24;6.20;;;5.50;;
2998;SDS011;1509;51.964;7.628;2023-05-07T13:12:50;7.10;;;6.30;;
2998;SDS011;1509;51.964;7.628;2023-05-07T13:15:16;7.20;;;5.83;;
2998;SDS011;1509;51.964;7.628;2023-05-07T13:17:42;9.27;;;5.87;;
2998;SDS011;1509;51.964;7.628;2023-05-07T13:20:09;9.10;;;7.40;;
2998;SDS011;1509;51.964;7.628;2023-05-07T13:22:38;8.20;;;7.30;;
2998;SDS011;1509;51.964;7.628;2023-05-07T13:25:04;7.43;;;6.67;;
2998;SDS011;1509;51.964;7.628;2023-05-07T13:27:30;7.90;;;6.23;;
2998;SDS011;1509;51.964;7.628;2023-05-07T13:29:56;7.90;;;5.50;;
2998;SDS011;1509;51.964;7.628;2023-05-07T13:32:22;7.43;;;5.77;;
2998;SDS011;1509;51.964;7.628;2023-05-07T13:34:48;6.70;;;5.80;;
2998;SDS011;1509;51.964;7.628;2023-05-07T13:37:13;8.83;;;7.17;;
2998;SDS011;1509;51.964;7.628;2023-05-07T13:39:45;8.63;;;6.43;;
2998;SDS011;1509;51.964;7.628;2023-05-07T13:42:10;7.80;;;5.90;;
2998;SDS011;1509;51.964;7.628;2023-05-07T13:44:36;6.50;;;5.70;;
2998;SDS011;1509;51.964;7.628;2023-05-07T13:47:01;7.43;;;5.93;;
2998;SDS011;1509;51.964;7.628;2023-05-07T13:49:27;6.77;;;5.77;;
2998;SDS011;1509;51.964;7.628;2023-05-07T13:51:53;6.53;;;5.30;;
2998;SDS011;1509;51.964;7.628;2023-05-07T13:54:21;8.60;;;6.27;;
2998;SDS011;1509;51.964;7.628;2023-05-07T13:56:47;9.00;;;6.73;;
2998;SDS011;1509;51.964;7.628;2023-05-07T13:59:12;7.90;;;6.97;;
2998;SDS011;1509;51.964;7.628;2023-05-07T14:01:39;9.63;;;7.47;;
2998;SDS011;1509;51.964;7.628;2023-05-07T14:04:05;9.67;;;7.33;;
2998;SDS011;1509;51.964;7.628;2023-05-07T14:06:31;8.37;;;7.47;;
2998;SDS011;1509;51.964;7.628;2023-05-07T14:08:57;10.50;;;7.87;;
2998;SDS011;1509;51.964;7.628;2023-05-07T14:11:23;10.93;;;7.50;;
2998;SDS011;1509;51.964;7.628;2023-05-07T14:13:48;8.50;;;7.00;;
2998;SDS011;1509;51.964;7.628;2023-05-07T14:16:14;7.83;;;7.03;;
2998;SDS011;1509;51.964;7.628;2023-05-07T14:18:40;8.77;;;6.70;;
2998;SDS011;1509;51.964;7.628;2023-05-07T14:21:05;7.13;;;5.63;;
2998;SDS011;1509;51.964;7.628;2023-05-07T14:23:32;8.70;;;7.23;;
2998;SDS011;1509;51.964;7.628;2023-05-07T14:25:57;11.70;;;7.23;;
2998;SDS011;1509;51.964;7.628;2023-05-07T14:28:23;9.00;;;7.30;;
2998;SDS011;1509;51.964;7.628;2023-05-07T14:30:51;7.70;;;6.90;;
2998;SDS011;1509;51.964;7.628;2023-05-07T14:33:17;10.33;;;7.23;;
2998;SDS011;1509;51.964;7.628;2023-05-07T14:35:43;8.53;;;7.57;;
2998;SDS011;1509;51.964;7.628;2023-05-07T14:38:12;8.43;;;7.43;;
2998;SDS011;1509;51.964;7.628;2023-05-07T14:40:38;10.97;;;7.70;;
2998;SDS011;1509;51.964;7.628;2023-05-07T14:43:04;10.37;;;7.10;;
2998;SDS011;1509;51.964;7.628;2023-05-07T14:45:29;8.63;;;7.30;;
2998;SDS011;1509;51.964;7.628;2023-05-07T14:47:55;9.50;;;7.77;;
2998;SDS011;1509;51.964;7.628;2023-05-07T14:50:21;7.80;;;6.23;;
2998;SDS011;1509;51.964;7.628;2023-05-07T14:52:46;7.23;;;5.77;;
2998;SDS011;1509;51.964;7.628;2023-05-07T14:55:15;6.57;;;5.63;;
2998;SDS011;1509;51.964;7.628;2023-05-07T14:57:40;7.30;;;5.47;;
2998;SDS011;1509;51.964;7.628;2023-05-07T15:00:09;6.50;;;5.50;;
2998;SDS011;1509;51.964;7.628;2023-05-07T15:02:36;8.63;;;5.70;;
2998;SDS011;1509;51.964;7.628;2023-05-07T15:05:02;9.43;;;6.03;;
2998;SDS011;1509;51.964;7.628;2023-05-07T15:07:28;8.07;;;6.50;;
2998;SDS011;1509;51.964;7.628;2023-05-07T15:09:53;8.53;;;6.23;;
2998;SDS011;1509;51.964;7.628;2023-05-07T15:12:22;11.53;;;6.67;;
2998;SDS011;1509;51.964;7.628;2023-05-07T15:14:48;6.73;;;5.70;;
2998;SDS011;1509;51.964;7.628;2023-05-07T15:17:13;7.70;;;6.30;;